Time;durP1;ratioP1;P1;durP2;ratioP2;P2;SDS_P1;SDS_P2;PMS_P1;PMS_P2;Temp;Humidity;BMP_temperature;BMP_pressure;BME280_temperature;BME280_humidity;BME280_pressure;Samples;Min_cycle;Max_cycle;Signal;HPM_P1;HPM_P2
2022/01/04 00:01:44;;;;;;;3.63;2.60;;;7.10;99.90;;;;;;4991284;28;20857;-61
2022/01/04 00:04:11;;;;;;;4.87;2.90;;;7.10;99.90;;;;;;4990994;28;20227;-65
2022/01/04 00:06:37;;;;;;;4.67;2.80;;;7.10;99.90;;;;;;4990703;28;20204;-62
2022/01/04 00:09:07;;;;;;;4.00;2.90;;;7.10;99.90;;;;;;4992015;28;20203;-65
2022/01/04 00:11:46;;;;;;;5.40;2.70;;;7.10;99.90;;;;;;4992574;28;20203;-63
2022/01/04 00:14:12;;;;;;;5.27;3.07;;;7.10;99.90;;;;;;4992406;28;20538;-65
2022/01/04 00:16:40;;;;;;;6.23;3.27;;;7.10;99.90;;;;;;4992303;28;20214;-62
2022/01/04 00:19:06;;;;;;;6.73;3.10;;;7.10;99.90;;;;;;4991963;28;20219;-64
2022/01/04 00:21:33;;;;;;;4.00;2.90;;;7.00;99.90;;;;;;4992174;28;20207;-63
2022/01/04 00:24:00;;;;;;;4.33;2.70;;;7.00;99.90;;;;;;4992398;28;20227;-63
2022/01/04 00:26:29;;;;;;;5.53;2.80;;;7.00;99.90;;;;;;4981190;28;20263;-64
2022/01/04 00:28:56;;;;;;;4.70;2.90;;;7.00;99.90;;;;;;4972827;28;20230;-64
2022/01/04 00:31:23;;;;;;;4.27;2.67;;;7.00;99.90;;;;;;4972728;28;20208;-63
2022/01/04 00:33:50;;;;;;;6.17;3.00;;;7.00;99.90;;;;;;4972939;28;20641;-64
2022/01/04 00:36:17;;;;;;;5.30;3.03;;;7.00;99.90;;;;;;4972317;28;20216;-63
2022/01/04 00:38:44;;;;;;;6.37;3.17;;;7.00;99.90;;;;;;4972731;28;20204;-63
2022/01/04 00:41:10;;;;;;;4.10;2.53;;;7.00;99.90;;;;;;4972352;28;20212;-64
2022/01/04 00:43:39;;;;;;;5.40;2.90;;;7.00;99.90;;;;;;4972683;28;20218;-65
2022/01/04 00:46:07;;;;;;;5.13;2.70;;;7.00;99.90;;;;;;4988024;28;20656;-64
2022/01/04 00:51:18;;;;;;;4.60;2.50;;;7.00;99.90;;;;;;4991493;28;20734;-64
2022/01/04 00:53:45;;;;;;;7.20;2.90;;;7.00;99.90;;;;;;4991889;28;20212;-62
2022/01/04 00:56:11;;;;;;;5.17;3.20;;;7.00;99.90;;;;;;4991956;28;20204;-64
2022/01/04 00:58:40;;;;;;;6.27;2.77;;;7.00;99.90;;;;;;4991880;28;20214;-64
2022/01/04 01:01:06;;;;;;;3.73;2.50;;;7.00;99.90;;;;;;4991838;28;20203;-63
2022/01/04 01:03:33;;;;;;;5.27;2.80;;;7.00;99.90;;;;;;4991966;28;20214;-64
2022/01/04 01:06:00;;;;;;;6.93;3.33;;;7.00;99.90;;;;;;4991726;28;20234;-61
2022/01/04 01:08:27;;;;;;;4.13;2.80;;;6.90;99.90;;;;;;4991853;28;20210;-63
2022/01/04 01:10:53;;;;;;;3.53;2.77;;;6.90;99.90;;;;;;4991511;28;20218;-63
2022/01/04 01:13:20;;;;;;;6.50;2.70;;;6.90;99.90;;;;;;4994630;28;20677;-63
2022/01/04 01:15:48;;;;;;;4.07;2.60;;;6.90;99.90;;;;;;4995446;28;20211;-64
2022/01/04 01:18:17;;;;;;;4.13;3.00;;;6.90;99.90;;;;;;4995414;28;20668;-63
2022/01/04 01:20:47;;;;;;;5.10;3.10;;;6.90;99.90;;;;;;4994361;28;20585;-63
2022/01/04 01:23:14;;;;;;;5.73;2.80;;;6.90;99.90;;;;;;4995211;28;20573;-63
2022/01/04 01:25:41;;;;;;;5.67;2.87;;;6.90;99.90;;;;;;4995487;28;20230;-63
2022/01/04 01:28:07;;;;;;;4.83;3.00;;;6.90;99.90;;;;;;4995013;28;20204;-63
2022/01/04 01:30:37;;;;;;;3.97;2.70;;;6.90;99.90;;;;;;4994967;28;20215;-64
2022/01/04 01:33:06;;;;;;;4.70;3.27;;;6.90;99.90;;;;;;4995010;28;20220;-63
2022/01/04 01:35:33;;;;;;;7.73;2.93;;;6.90;99.90;;;;;;4995763;28;20211;-63
2022/01/04 01:38:00;;;;;;;5.63;3.30;;;6.90;99.90;;;;;;4995242;28;20207;-64
2022/01/04 01:40:27;;;;;;;6.13;3.20;;;6.80;99.90;;;;;;4995278;28;20575;-64
2022/01/04 01:42:54;;;;;;;6.10;3.53;;;6.80;99.90;;;;;;4994720;28;20204;-65
2022/01/04 01:45:22;;;;;;;6.63;4.17;;;6.80;99.90;;;;;;4995329;28;20223;-64
2022/01/04 01:47:49;;;;;;;7.63;4.30;;;6.80;99.90;;;;;;4994947;28;20207;-66
2022/01/04 01:50:18;;;;;;;8.67;4.47;;;6.80;99.90;;;;;;4994543;28;20207;-64
2022/01/04 01:52:47;;;;;;;9.60;4.93;;;6.80;99.90;;;;;;4994840;28;20207;-66
2022/01/04 01:55:16;;;;;;;7.73;4.00;;;6.80;99.90;;;;;;4994463;28;20204;-65
2022/01/04 01:57:43;;;;;;;9.40;4.80;;;6.80;99.90;;;;;;4994605;28;20211;-64
2022/01/04 02:00:13;;;;;;;7.70;4.23;;;6.80;99.90;;;;;;4993560;28;20715;-65
2022/01/04 02:02:40;;;;;;;7.40;4.00;;;6.70;99.90;;;;;;4994746;28;20552;-63
2022/01/04 02:05:08;;;;;;;6.27;3.47;;;6.70;99.90;;;;;;4993738;28;20215;-65
2022/01/04 02:07:38;;;;;;;5.37;3.30;;;6.70;99.90;;;;;;4994652;28;20203;-66
2022/01/04 02:10:07;;;;;;;6.37;3.17;;;6.60;99.90;;;;;;4994612;28;20569;-64
2022/01/04 02:12:37;;;;;;;5.60;3.70;;;6.60;99.90;;;;;;4994381;28;20203;-63
2022/01/04 02:15:06;;;;;;;5.17;3.03;;;6.60;99.90;;;;;;4994182;28;20203;-65
2022/01/04 02:17:33;;;;;;;4.33;2.83;;;6.60;99.90;;;;;;4994376;28;20218;-64
2022/01/04 02:20:01;;;;;;;4.60;3.00;;;6.60;99.90;;;;;;4994040;28;20675;-63
2022/01/04 02:22:28;;;;;;;5.00;3.00;;;6.50;99.90;;;;;;4993941;28;20227;-64
2022/01/04 02:24:55;;;;;;;3.57;2.60;;;6.50;99.90;;;;;;4994052;28;20833;-64
2022/01/04 02:27:23;;;;;;;4.63;2.50;;;6.50;99.90;;;;;;4994573;28;20207;-66
2022/01/04 02:29:50;;;;;;;4.00;2.20;;;6.50;99.90;;;;;;4993671;28;20679;-64
2022/01/04 02:32:17;;;;;;;3.47;2.30;;;6.50;99.90;;;;;;4994037;28;20203;-64
2022/01/04 02:34:49;;;;;;;3.93;2.10;;;6.50;99.90;;;;;;4994486;28;20203;-63
2022/01/04 02:37:21;;;;;;;2.70;2.03;;;6.50;99.90;;;;;;4994050;28;20242;-62
2022/01/04 02:39:48;;;;;;;4.47;2.33;;;6.50;99.90;;;;;;4993629;28;20227;-64
2022/01/04 02:42:16;;;;;;;4.47;2.03;;;6.50;99.90;;;;;;4993985;28;20317;-64
2022/01/04 02:44:43;;;;;;;2.40;1.90;;;6.50;99.90;;;;;;4993535;28;20231;-63
2022/01/04 02:47:10;;;;;;;3.03;1.87;;;6.50;99.90;;;;;;4993302;28;20656;-64
2022/01/04 02:49:37;;;;;;;3.27;1.93;;;6.50;99.90;;;;;;4993639;28;20541;-64
2022/01/04 02:52:04;;;;;;;2.30;1.83;;;6.50;99.90;;;;;;4993436;28;20596;-63
2022/01/04 02:54:33;;;;;;;3.10;2.00;;;6.50;99.90;;;;;;4993682;28;20204;-63
2022/01/04 02:56:59;;;;;;;3.57;2.03;;;6.50;99.90;;;;;;4992758;28;20569;-63
2022/01/04 02:59:26;;;;;;;3.20;1.90;;;6.50;99.90;;;;;;4993004;28;20254;-63
2022/01/04 03:01:53;;;;;;;2.90;2.10;;;6.50;99.90;;;;;;4993347;28;20215;-62
2022/01/04 03:04:21;;;;;;;2.90;2.20;;;6.40;99.90;;;;;;4993595;28;20203;-63
2022/01/04 03:06:48;;;;;;;5.30;2.40;;;6.40;99.90;;;;;;4993246;28;20664;-64
2022/01/04 03:09:15;;;;;;;5.07;2.77;;;6.40;99.90;;;;;;4993084;28;20652;-64
2022/01/04 03:11:43;;;;;;;3.90;2.67;;;6.40;99.90;;;;;;4993339;28;20565;-63
2022/01/04 03:14:10;;;;;;;3.00;2.00;;;6.40;99.90;;;;;;4993020;28;20215;-63
2022/01/04 03:16:37;;;;;;;5.30;2.00;;;6.30;99.90;;;;;;4993215;28;20594;-65
2022/01/04 03:19:06;;;;;;;3.37;2.10;;;6.30;99.90;;;;;;4992582;28;20660;-63
2022/01/04 03:21:34;;;;;;;3.37;2.00;;;6.30;99.90;;;;;;4992596;28;20708;-63
2022/01/04 03:24:02;;;;;;;3.57;1.87;;;6.30;99.90;;;;;;4992783;28;20358;-62
2022/01/04 03:26:29;;;;;;;2.73;1.93;;;6.30;99.90;;;;;;4993041;28;20238;-63
2022/01/04 03:28:58;;;;;;;3.77;2.00;;;6.40;99.90;;;;;;4992989;28;20203;-63
2022/01/04 03:31:25;;;;;;;3.13;2.10;;;6.30;99.90;;;;;;4992766;28;20214;-63
2022/01/04 03:33:52;;;;;;;5.83;2.20;;;6.30;99.90;;;;;;4992548;28;20566;-64
2022/01/04 03:36:20;;;;;;;3.50;1.90;;;6.40;99.90;;;;;;4992405;28;20210;-64
2022/01/04 03:38:47;;;;;;;2.83;1.80;;;6.40;99.90;;;;;;4992389;28;20303;-63
2022/01/04 03:41:14;;;;;;;2.13;1.83;;;6.40;99.90;;;;;;4992705;28;20215;-64
2022/01/04 03:43:41;;;;;;;5.83;2.03;;;6.40;99.90;;;;;;4992414;28;20214;-63
2022/01/04 03:46:09;;;;;;;2.80;1.90;;;6.40;99.90;;;;;;4992957;28;20235;-63
2022/01/04 03:48:36;;;;;;;4.57;2.10;;;6.40;99.90;;;;;;4992386;28;20214;-64
2022/01/04 03:51:05;;;;;;;3.07;2.17;;;6.50;99.90;;;;;;4992214;28;20223;-63
2022/01/04 03:53:31;;;;;;;4.30;2.30;;;6.50;99.90;;;;;;4992802;28;20699;-63
2022/01/04 03:55:58;;;;;;;3.87;2.10;;;6.50;99.90;;;;;;4992704;28;20210;-65
2022/01/04 03:58:25;;;;;;;5.33;2.33;;;6.50;99.90;;;;;;4992204;28;20207;-66
2022/01/04 04:00:52;;;;;;;4.53;2.50;;;6.50;99.90;;;;;;4991841;28;20199;-65
2022/01/04 04:03:20;;;;;;;4.03;2.60;;;6.50;99.90;;;;;;4992281;28;20200;-65
2022/01/04 04:05:49;;;;;;;5.27;2.40;;;6.50;99.90;;;;;;4993893;28;20718;-65
2022/01/04 04:08:16;;;;;;;5.30;2.80;;;6.50;99.90;;;;;;4992750;28;20690;-64
2022/01/04 04:10:43;;;;;;;5.57;3.10;;;6.50;99.90;;;;;;4991905;28;20653;-63
2022/01/04 04:13:10;;;;;;;5.67;2.80;;;6.50;99.90;;;;;;4992405;28;20211;-64
2022/01/04 04:15:40;;;;;;;6.33;3.57;;;6.40;99.90;;;;;;4992137;28;20200;-65
2022/01/04 04:18:07;;;;;;;7.63;3.70;;;6.50;99.90;;;;;;4992593;28;20211;-65
2022/01/04 04:20:35;;;;;;;5.57;3.43;;;6.40;99.90;;;;;;4992014;28;20467;-65
2022/01/04 04:23:02;;;;;;;8.00;3.73;;;6.50;99.90;;;;;;4992489;28;20566;-65
2022/01/04 04:25:29;;;;;;;5.80;4.40;;;6.50;99.90;;;;;;4992328;28;20718;-64
2022/01/04 04:27:56;;;;;;;7.90;4.90;;;6.40;99.90;;;;;;4992094;28;20206;-65
2022/01/04 04:30:22;;;;;;;9.03;5.10;;;6.50;99.90;;;;;;4991680;28;20222;-65
2022/01/04 04:32:49;;;;;;;8.30;5.10;;;6.40;99.90;;;;;;4991783;28;20211;-66
2022/01/04 04:35:17;;;;;;;8.27;5.23;;;6.40;99.90;;;;;;4992365;28;20209;-64
2022/01/04 04:37:45;;;;;;;7.37;4.83;;;6.40;99.90;;;;;;4991525;28;20214;-65
2022/01/04 04:40:13;;;;;;;8.07;5.37;;;6.40;99.90;;;;;;4992017;28;20207;-67
2022/01/04 04:42:40;;;;;;;8.23;5.70;;;6.40;99.90;;;;;;4991734;28;20664;-65
2022/01/04 04:45:08;;;;;;;10.00;5.90;;;6.40;99.90;;;;;;4991843;28;20211;-64
2022/01/04 04:47:35;;;;;;;11.60;5.67;;;6.40;99.90;;;;;;4995470;28;20684;-65
2022/01/04 04:50:03;;;;;;;9.67;6.07;;;6.40;99.90;;;;;;4996149;28;20210;-66
2022/01/04 04:52:29;;;;;;;8.67;5.90;;;6.40;99.90;;;;;;4995175;28;20715;-64
2022/01/04 04:54:58;;;;;;;8.23;5.97;;;6.40;99.90;;;;;;4995754;28;20574;-64
2022/01/04 04:57:24;;;;;;;9.07;6.13;;;6.40;99.90;;;;;;4995968;28;20287;-64
2022/01/04 04:59:51;;;;;;;8.43;5.73;;;6.40;99.90;;;;;;4995319;28;20258;-66
2022/01/04 05:02:18;;;;;;;8.87;5.90;;;6.40;99.90;;;;;;4995740;28;20214;-65
2022/01/04 05:04:45;;;;;;;8.40;5.87;;;6.40;99.90;;;;;;4995317;28;20214;-64
2022/01/04 05:07:13;;;;;;;9.70;6.13;;;6.40;99.90;;;;;;4995937;28;20234;-64
2022/01/04 05:09:40;;;;;;;7.50;5.70;;;6.40;99.90;;;;;;4976060;28;20212;-65
2022/01/04 05:12:09;;;;;;;11.07;6.43;;;6.40;99.90;;;;;;4976182;28;20212;-65
2022/01/04 05:14:37;;;;;;;10.93;6.30;;;6.40;99.90;;;;;;4975811;28;20719;-64
2022/01/04 05:17:05;;;;;;;11.20;6.67;;;6.40;99.90;;;;;;4976127;28;20550;-64
2022/01/04 05:19:31;;;;;;;10.13;7.10;;;6.40;99.90;;;;;;4994501;28;20210;-64
2022/01/04 05:21:58;;;;;;;11.20;7.00;;;6.40;99.90;;;;;;4995440;28;20214;-67
2022/01/04 05:24:25;;;;;;;8.87;6.33;;;6.40;99.90;;;;;;4995624;28;20207;-65
2022/01/04 05:26:52;;;;;;;9.07;6.63;;;6.40;99.90;;;;;;4994890;28;20227;-65
2022/01/04 05:29:20;;;;;;;8.10;6.17;;;6.40;99.90;;;;;;4995167;28;20629;-66
2022/01/04 05:31:47;;;;;;;13.37;7.03;;;6.40;99.90;;;;;;4994781;28;20298;-66
2022/01/04 05:34:13;;;;;;;10.27;6.70;;;6.40;99.90;;;;;;4995487;28;20211;-67
2022/01/04 05:36:40;;;;;;;9.33;6.87;;;6.40;99.90;;;;;;4995007;28;20203;-64
2022/01/04 05:39:07;;;;;;;11.73;7.03;;;6.40;99.90;;;;;;4995071;28;20206;-65
2022/01/04 05:41:34;;;;;;;11.30;7.40;;;6.40;99.90;;;;;;4994578;28;20261;-65
2022/01/04 05:44:01;;;;;;;14.37;8.07;;;6.40;99.90;;;;;;4995166;28;20254;-66
2022/01/04 05:46:29;;;;;;;10.30;7.60;;;6.40;99.90;;;;;;4994792;28;20333;-68
2022/01/04 05:48:56;;;;;;;10.10;6.87;;;6.30;99.90;;;;;;4994801;28;20203;-66
2022/01/04 05:51:23;;;;;;;12.00;7.33;;;6.30;99.90;;;;;;4994596;28;20199;-65
2022/01/04 05:53:49;;;;;;;11.63;6.93;;;6.30;99.90;;;;;;4994794;28;20203;-67
2022/01/04 05:56:17;;;;;;;11.93;7.43;;;6.30;99.90;;;;;;4994763;28;20621;-65
2022/01/04 05:58:43;;;;;;;10.47;7.47;;;6.30;99.90;;;;;;4994520;28;20235;-64
2022/01/04 06:01:10;;;;;;;8.50;6.27;;;6.30;99.90;;;;;;4995441;28;20692;-67
2022/01/04 06:03:38;;;;;;;12.10;7.10;;;6.40;99.90;;;;;;4994132;28;20227;-65
2022/01/04 06:06:05;;;;;;;9.83;6.93;;;6.40;99.90;;;;;;4994836;28;20231;-67
2022/01/04 06:08:35;;;;;;;12.00;7.00;;;6.40;99.90;;;;;;4994302;28;20682;-66
2022/01/04 06:11:02;;;;;;;10.50;6.77;;;6.40;99.90;;;;;;4993966;28;20211;-66
2022/01/04 06:16:13;;;;;;;10.60;6.57;;;6.40;99.90;;;;;;4994467;28;20699;-65
2022/01/04 06:18:42;;;;;;;11.93;7.50;;;6.40;99.90;;;;;;4994251;28;20664;-65
2022/01/04 06:21:10;;;;;;;14.57;8.00;;;6.40;99.90;;;;;;4994418;28;20254;-66
2022/01/04 06:23:37;;;;;;;12.33;7.37;;;6.40;99.90;;;;;;4994301;28;20572;-68
2022/01/04 06:26:05;;;;;;;14.17;7.90;;;6.30;99.90;;;;;;4994031;28;20654;-65
2022/01/04 06:28:32;;;;;;;14.03;8.10;;;6.30;99.90;;;;;;4994245;28;20740;-66
2022/01/04 06:30:59;;;;;;;15.57;8.17;;;6.30;99.90;;;;;;4994116;28;20669;-64
2022/01/04 06:33:26;;;;;;;20.47;9.27;;;6.30;99.90;;;;;;4994118;28;20213;-67
2022/01/04 06:35:55;;;;;;;14.77;9.30;;;6.30;99.90;;;;;;4993480;28;20198;-65
2022/01/04 06:38:22;;;;;;;12.70;8.23;;;6.40;99.90;;;;;;4993577;28;20207;-63
2022/01/04 06:40:49;;;;;;;18.03;8.40;;;6.40;99.90;;;;;;4994066;28;20207;-64
2022/01/04 06:43:16;;;;;;;16.50;9.70;;;6.40;99.90;;;;;;4993178;28;20207;-65
2022/01/04 06:45:43;;;;;;;14.53;9.67;;;6.40;99.90;;;;;;4993775;28;20207;-64
2022/01/04 06:48:10;;;;;;;15.07;8.17;;;6.40;99.90;;;;;;4993578;28;20223;-67
2022/01/04 06:50:37;;;;;;;15.27;7.97;;;6.40;99.90;;;;;;4993933;28;20211;-68
2022/01/04 06:53:05;;;;;;;12.90;7.70;;;6.30;99.90;;;;;;4993764;28;20207;-65
2022/01/04 06:55:32;;;;;;;13.57;7.67;;;6.30;99.90;;;;;;4993582;28;20215;-66
2022/01/04 06:57:59;;;;;;;13.57;7.53;;;6.30;99.90;;;;;;4993822;28;20210;-66
2022/01/04 07:00:25;;;;;;;12.10;7.40;;;6.30;99.90;;;;;;4992729;28;20238;-68
2022/01/04 07:02:52;;;;;;;9.63;6.83;;;6.30;99.90;;;;;;4993525;28;20211;-67
2022/01/04 07:05:19;;;;;;;11.73;6.80;;;6.30;99.90;;;;;;4993443;28;20237;-66
2022/01/04 07:07:46;;;;;;;12.13;6.87;;;6.40;99.90;;;;;;4993119;28;20322;-66
2022/01/04 07:10:14;;;;;;;10.10;6.60;;;6.40;99.90;;;;;;4993073;28;20227;-67
2022/01/04 07:12:41;;;;;;;12.30;7.70;;;6.40;99.90;;;;;;4993311;28;20203;-66
2022/01/04 07:15:09;;;;;;;12.53;7.30;;;6.40;99.90;;;;;;4993523;28;20226;-65
2022/01/04 07:17:39;;;;;;;10.23;6.77;;;6.40;99.90;;;;;;4993100;28;20211;-67
2022/01/04 07:20:07;;;;;;;11.57;7.07;;;6.40;99.90;;;;;;4992889;28;20195;-69
2022/01/04 07:22:33;;;;;;;13.03;7.23;;;6.40;99.90;;;;;;4992838;28;20227;-65
2022/01/04 07:25:01;;;;;;;12.93;6.30;;;6.40;99.90;;;;;;4993505;28;20560;-65
2022/01/04 07:27:29;;;;;;;11.27;7.23;;;6.40;99.90;;;;;;4993090;28;20591;-65
2022/01/04 07:29:56;;;;;;;10.40;6.20;;;6.40;99.90;;;;;;4992811;28;20783;-66
2022/01/04 07:32:23;;;;;;;12.03;6.43;;;6.40;99.90;;;;;;4991490;28;20221;-65
2022/01/04 07:34:49;;;;;;;11.43;6.83;;;6.40;99.90;;;;;;4992065;28;20210;-66
2022/01/04 07:37:16;;;;;;;10.53;6.40;;;6.40;99.90;;;;;;4991598;28;20652;-66
2022/01/04 07:39:43;;;;;;;10.80;6.97;;;6.40;99.90;;;;;;4992846;28;20227;-65
2022/01/04 07:42:10;;;;;;;11.00;7.13;;;6.40;99.90;;;;;;4992526;28;20231;-67
2022/01/04 07:44:38;;;;;;;15.50;8.07;;;6.40;99.90;;;;;;4992681;28;20207;-66
2022/01/04 07:47:05;;;;;;;15.40;8.00;;;6.40;99.90;;;;;;4992125;28;20219;-65
2022/01/04 07:49:32;;;;;;;14.43;7.50;;;6.50;99.90;;;;;;4993151;28;20211;-66
2022/01/04 07:51:59;;;;;;;9.83;5.63;;;6.50;99.90;;;;;;4993095;28;20224;-66
2022/01/04 07:54:26;;;;;;;11.70;5.87;;;6.40;99.90;;;;;;4992888;28;20211;-65
2022/01/04 07:56:53;;;;;;;8.30;5.43;;;6.50;99.90;;;;;;4992636;28;20207;-66
2022/01/04 07:59:20;;;;;;;12.90;6.13;;;6.50;99.90;;;;;;4992709;28;20322;-66
2022/01/04 08:01:48;;;;;;;9.17;6.17;;;6.50;99.90;;;;;;4993205;28;20687;-65
2022/01/04 08:04:15;;;;;;;11.83;6.47;;;6.50;99.90;;;;;;4992582;28;20207;-66
2022/01/04 08:06:42;;;;;;;11.77;6.07;;;6.60;99.90;;;;;;4992271;28;20229;-66
2022/01/04 08:09:09;;;;;;;10.77;5.77;;;6.60;99.90;;;;;;4992087;28;20295;-63
2022/01/04 08:11:35;;;;;;;11.47;6.87;;;6.50;99.90;;;;;;4992245;28;20438;-66
2022/01/04 08:14:02;;;;;;;15.23;6.90;;;6.50;99.90;;;;;;4991684;28;20570;-66
2022/01/04 08:16:29;;;;;;;12.20;6.90;;;6.60;99.90;;;;;;4992211;28;20644;-66
2022/01/04 08:18:57;;;;;;;11.33;6.53;;;6.60;99.90;;;;;;4992849;28;20210;-66
2022/01/04 08:21:24;;;;;;;9.20;6.20;;;6.60;99.90;;;;;;4990979;28;20207;-68
2022/01/04 08:23:51;;;;;;;10.53;6.60;;;6.60;99.90;;;;;;4991673;28;20223;-68
2022/01/04 08:26:18;;;;;;;13.70;7.27;;;6.60;99.90;;;;;;4991661;28;20199;-67
2022/01/04 08:28:45;;;;;;;13.83;7.50;;;6.60;99.90;;;;;;4991749;28;20218;-67
2022/01/04 08:31:12;;;;;;;10.60;7.10;;;6.70;99.90;;;;;;4991451;28;20200;-67
2022/01/04 08:33:39;;;;;;;11.63;7.33;;;6.60;99.90;;;;;;4991574;28;20199;-67
2022/01/04 08:36:09;;;;;;;12.77;6.97;;;6.70;99.90;;;;;;4991475;28;20210;-68
2022/01/04 08:38:36;;;;;;;13.50;7.03;;;6.70;99.90;;;;;;4992308;28;20196;-67
2022/01/04 08:41:03;;;;;;;13.50;7.43;;;6.70;99.90;;;;;;4992078;28;20294;-68
2022/01/04 08:43:30;;;;;;;11.97;6.80;;;6.70;99.90;;;;;;4991578;28;20289;-67
2022/01/04 08:45:56;;;;;;;16.00;7.57;;;6.70;99.90;;;;;;4991809;28;20211;-66
2022/01/04 08:48:23;;;;;;;14.90;6.70;;;6.80;99.90;;;;;;4991792;28;20238;-67
2022/01/04 08:50:50;;;;;;;10.03;6.70;;;6.70;99.90;;;;;;4992069;28;20199;-67
2022/01/04 08:53:18;;;;;;;15.20;7.23;;;6.80;99.90;;;;;;4991127;28;20668;-67
2022/01/04 08:55:47;;;;;;;12.73;7.70;;;6.80;99.90;;;;;;4991718;28;20216;-67
2022/01/04 08:58:14;;;;;;;13.13;7.60;;;6.80;99.90;;;;;;4991340;28;20422;-67
2022/01/04 09:00:43;;;;;;;13.57;7.83;;;6.80;99.90;;;;;;4991605;28;20258;-66
2022/01/04 09:03:10;;;;;;;12.93;7.83;;;6.80;99.90;;;;;;4990737;28;20299;-67
2022/01/04 09:05:37;;;;;;;17.37;8.93;;;6.80;99.90;;;;;;4992343;28;20505;-66
2022/01/04 09:08:04;;;;;;;14.70;9.07;;;6.80;99.90;;;;;;4992041;28;20235;-66
2022/01/04 09:10:34;;;;;;;17.07;9.07;;;6.80;99.90;;;;;;4983854;28;20200;-66
2022/01/04 09:13:05;;;;;;;15.90;9.40;;;6.90;99.90;;;;;;4986155;28;20199;-65
2022/01/04 09:15:46;;;;;;;18.60;8.70;;;6.90;99.90;;;;;;4996575;28;20192;-67
2022/01/04 09:21:10;;;;;;;16.87;9.80;;;6.90;99.90;;;;;;4967015;28;20193;-67
2022/01/04 09:23:38;;;;;;;16.37;9.53;;;7.00;99.90;;;;;;4985970;28;20220;-67
2022/01/04 09:26:07;;;;;;;14.17;9.10;;;7.00;99.90;;;;;;4991840;28;20678;-68
2022/01/04 09:28:34;;;;;;;18.47;9.50;;;7.00;99.90;;;;;;4991236;28;20211;-67
2022/01/04 09:31:01;;;;;;;16.53;9.20;;;7.10;99.90;;;;;;4991838;28;20210;-67
2022/01/04 09:33:29;;;;;;;16.17;9.20;;;7.10;99.90;;;;;;4993621;28;20323;-70
2022/01/04 09:35:56;;;;;;;17.57;9.40;;;7.10;99.90;;;;;;4997992;28;20203;-67
2022/01/04 09:38:25;;;;;;;18.77;8.70;;;7.10;99.90;;;;;;4994925;28;20203;-69
2022/01/04 09:40:54;;;;;;;15.13;8.60;;;7.10;99.90;;;;;;4994836;28;20541;-66
2022/01/04 09:43:24;;;;;;;17.93;9.23;;;7.20;99.90;;;;;;4993899;28;20208;-68
2022/01/04 09:45:52;;;;;;;15.37;8.53;;;7.20;99.90;;;;;;4994279;28;20204;-67
2022/01/04 09:48:19;;;;;;;20.50;9.33;;;7.20;99.90;;;;;;4994872;28;20227;-67
2022/01/04 09:50:47;;;;;;;17.53;8.40;;;7.20;99.90;;;;;;4997279;28;20292;-67
2022/01/04 09:53:19;;;;;;;17.87;9.00;;;7.20;99.90;;;;;;4994193;28;20579;-65
2022/01/04 09:55:48;;;;;;;17.40;9.33;;;7.20;99.90;;;;;;4978209;28;20296;-69
2022/01/04 09:58:15;;;;;;;19.27;9.40;;;7.20;99.90;;;;;;4994643;28;20215;-66
2022/01/04 10:00:43;;;;;;;17.23;10.00;;;7.20;99.90;;;;;;4994065;28;20622;-67
2022/01/04 10:03:12;;;;;;;19.20;10.43;;;7.20;99.90;;;;;;4979938;28;20204;-68
2022/01/04 10:05:39;;;;;;;15.97;9.57;;;7.20;99.90;;;;;;4975390;28;20259;-67
2022/01/04 10:08:08;;;;;;;19.03;9.83;;;7.20;99.90;;;;;;4978553;28;20246;-69
2022/01/04 10:10:37;;;;;;;18.27;9.87;;;7.10;99.90;;;;;;4989457;28;20228;-67
2022/01/04 10:13:06;;;;;;;20.13;10.20;;;7.20;99.90;;;;;;4994531;28;20207;-68
2022/01/04 10:15:39;;;;;;;17.43;8.80;;;7.20;99.90;;;;;;4996511;28;20202;-69
2022/01/04 10:18:21;;;;;;;16.50;8.90;;;7.10;99.90;;;;;;4990997;28;20203;-69
2022/01/04 10:20:52;;;;;;;14.70;8.47;;;7.10;99.90;;;;;;4994507;28;20200;-65
2022/01/04 10:23:21;;;;;;;14.23;7.93;;;7.10;99.90;;;;;;4993900;28;20665;-66
2022/01/04 10:25:49;;;;;;;13.23;7.20;;;7.10;99.90;;;;;;4994193;28;20211;-67
2022/01/04 10:28:29;;;;;;;11.40;7.40;;;7.10;99.90;;;;;;4994598;28;20699;-69
2022/01/04 10:30:59;;;;;;;13.13;6.90;;;7.10;99.90;;;;;;4994086;28;20258;-67
2022/01/04 10:33:28;;;;;;;15.73;7.47;;;7.20;99.90;;;;;;4992277;28;20203;-68
2022/01/04 10:35:56;;;;;;;15.47;7.33;;;7.20;99.90;;;;;;4993679;28;20209;-67
2022/01/04 10:38:26;;;;;;;15.03;7.50;;;7.20;99.90;;;;;;4994049;28;20199;-66
2022/01/04 10:40:58;;;;;;;13.77;7.53;;;7.20;99.90;;;;;;4993836;28;20254;-68
2022/01/04 10:43:28;;;;;;;16.83;7.53;;;7.20;99.90;;;;;;4980600;28;20201;-66
2022/01/04 10:45:56;;;;;;;14.57;8.17;;;7.20;99.90;;;;;;4974219;28;20208;-66
2022/01/04 10:48:25;;;;;;;19.73;9.60;;;7.30;99.90;;;;;;4974236;28;20224;-68
2022/01/04 10:50:55;;;;;;;15.20;8.70;;;7.30;99.90;;;;;;4974560;28;20215;-67
2022/01/04 10:53:27;;;;;;;19.23;10.00;;;7.30;99.90;;;;;;4974689;28;20204;-68
2022/01/04 10:56:02;;;;;;;19.33;9.70;;;7.40;99.90;;;;;;4974073;28;20212;-69
2022/01/04 10:58:35;;;;;;;18.87;9.97;;;7.40;99.90;;;;;;4974169;28;20286;-69
2022/01/04 11:01:06;;;;;;;19.70;10.53;;;7.50;99.90;;;;;;4973814;28;20195;-67
2022/01/04 11:03:35;;;;;;;18.87;10.07;;;7.50;99.90;;;;;;4974374;28;20207;-67
2022/01/04 11:06:10;;;;;;;18.13;9.53;;;7.50;99.90;;;;;;4973837;28;20218;-66
2022/01/04 11:08:38;;;;;;;17.00;10.10;;;7.50;99.90;;;;;;4973832;28;20219;-67
2022/01/04 11:11:05;;;;;;;20.87;9.47;;;7.60;99.90;;;;;;4974007;28;20219;-68
2022/01/04 11:13:32;;;;;;;15.90;9.27;;;7.60;99.90;;;;;;4974219;28;20208;-67
2022/01/04 11:16:01;;;;;;;14.07;8.33;;;7.60;99.90;;;;;;4974180;28;20230;-68
2022/01/04 11:18:28;;;;;;;17.03;7.27;;;7.60;99.90;;;;;;4992743;28;20211;-68
2022/01/04 11:20:56;;;;;;;12.27;6.53;;;7.60;99.90;;;;;;4993372;28;20214;-67
2022/01/04 11:23:30;;;;;;;16.27;6.90;;;7.50;99.90;;;;;;4993231;28;20659;-66
2022/01/04 11:25:58;;;;;;;11.17;6.53;;;7.50;99.90;;;;;;4993114;28;20204;-70
2022/01/04 11:28:26;;;;;;;18.70;7.33;;;7.50;99.90;;;;;;4993271;28;20232;-66
2022/01/04 11:31:06;;;;;;;14.37;7.70;;;7.60;99.90;;;;;;4992990;28;20203;-66
2022/01/04 11:33:46;;;;;;;15.30;7.33;;;7.60;99.90;;;;;;4993143;28;20655;-68
2022/01/04 11:36:14;;;;;;;14.53;7.27;;;7.60;99.90;;;;;;4992572;28;20233;-69
2022/01/04 11:38:42;;;;;;;15.33;7.30;;;7.60;99.90;;;;;;4992712;28;20208;-66
2022/01/04 11:41:09;;;;;;;13.20;6.63;;;7.60;99.90;;;;;;4992451;28;20226;-67
2022/01/04 11:43:39;;;;;;;16.30;6.67;;;7.50;99.90;;;;;;4991678;28;20204;-66
2022/01/04 11:46:06;;;;;;;13.10;6.60;;;7.50;99.90;;;;;;4992518;28;20191;-68
2022/01/04 11:48:36;;;;;;;11.97;6.20;;;7.50;99.90;;;;;;4991251;28;20222;-67
2022/01/04 11:51:05;;;;;;;14.57;6.10;;;7.50;99.90;;;;;;4992628;28;20287;-68
2022/01/04 11:53:32;;;;;;;12.17;6.27;;;7.40;99.90;;;;;;4992866;28;20622;-70
2022/01/04 11:56:03;;;;;;;11.90;5.38;;;7.40;99.90;;;;;;4997719;28;20436;-68
2022/01/04 11:58:44;;;;;;;12.60;5.37;;;7.40;99.90;;;;;;4995172;28;20199;-67
2022/01/04 12:01:14;;;;;;;11.17;5.10;;;7.40;99.90;;;;;;4992667;28;20257;-68
2022/01/04 12:03:47;;;;;;;14.47;6.30;;;7.40;99.90;;;;;;4992198;28;20211;-67
2022/01/04 12:06:15;;;;;;;15.00;6.37;;;7.40;99.90;;;;;;4992721;28;20191;-68
2022/01/04 12:08:47;;;;;;;13.97;5.50;;;7.50;99.90;;;;;;4991482;28;20310;-68
2022/01/04 12:11:39;;;;;;;10.53;5.40;;;7.50;99.90;;;;;;4992235;28;20199;-69
2022/01/04 12:14:21;;;;;;;14.27;6.07;;;7.50;99.90;;;;;;4992235;28;20196;-68
2022/01/04 12:17:00;;;;;;;15.23;5.73;;;7.50;99.90;;;;;;4992229;28;20218;-67
2022/01/04 12:19:46;;;;;;;13.83;5.53;;;7.60;99.90;;;;;;4992064;28;20195;-67
2022/01/04 12:22:12;;;;;;;9.37;5.23;;;7.60;99.90;;;;;;4991791;28;20558;-69
2022/01/04 12:24:46;;;;;;;11.43;5.57;;;7.60;99.90;;;;;;4990907;28;20207;-66
2022/01/04 12:27:16;;;;;;;11.83;5.97;;;7.60;99.90;;;;;;4991977;28;20716;-69
2022/01/04 12:29:43;;;;;;;13.53;6.10;;;7.60;99.90;;;;;;4991240;28;20212;-69
2022/01/04 12:32:21;;;;;;;15.07;5.97;;;7.70;99.90;;;;;;4991669;28;20216;-69
2022/01/04 12:35:06;;;;;;;15.00;6.67;;;7.70;99.90;;;;;;4991153;28;20199;-68
2022/01/04 12:37:37;;;;;;;14.37;6.37;;;7.70;99.90;;;;;;4991957;28;20286;-68
2022/01/04 12:40:05;;;;;;;13.43;5.83;;;7.70;99.90;;;;;;4992101;28;20755;-68
2022/01/04 12:42:33;;;;;;;12.70;6.33;;;7.70;99.90;;;;;;4991947;28;20215;-69
2022/01/04 12:45:01;;;;;;;14.20;5.83;;;7.70;99.90;;;;;;4991453;28;20203;-66
2022/01/04 12:47:28;;;;;;;13.27;5.07;;;7.70;99.90;;;;;;4991322;28;20275;-67
2022/01/04 12:50:00;;;;;;;14.10;5.50;;;7.70;99.90;;;;;;4991886;28;20213;-67
2022/01/04 12:52:27;;;;;;;9.67;5.33;;;7.70;99.90;;;;;;4991246;28;20192;-68
2022/01/04 12:54:54;;;;;;;11.30;5.10;;;7.70;99.90;;;;;;4991616;28;20207;-68
2022/01/04 12:57:23;;;;;;;9.07;5.83;;;7.70;99.90;;;;;;5006963;28;20202;-69
2022/01/04 12:59:53;;;;;;;16.30;5.73;;;7.70;99.90;;;;;;4997757;28;20231;-68
2022/01/04 13:02:23;;;;;;;9.87;5.33;;;7.80;99.90;;;;;;4991819;28;20200;-68
2022/01/04 13:04:52;;;;;;;15.07;5.90;;;7.80;99.90;;;;;;4991574;28;20557;-68